createdAt,value
2022-12-08T00:00:40.797Z,97882.28
2022-12-08T00:01:42.536Z,97885.97
2022-12-08T00:02:44.515Z,97884.75
2022-12-08T00:03:47.006Z,97882.91
2022-12-08T00:05:06.928Z,97884.00
2022-12-08T00:06:37.809Z,97878.13
2022-12-08T00:07:57.683Z,97878.84
2022-12-08T00:09:17.880Z,97876.25
2022-12-08T00:10:47.953Z,97877.75
2022-12-08T00:11:41.101Z,97878.66
2022-12-08T00:12:42.516Z,97874.81
2022-12-08T00:13:44.210Z,97876.38
2022-12-08T00:14:47.601Z,97876.09
2022-12-08T00:15:52.071Z,97872.03
2022-12-08T00:16:54.529Z,97872.03
2022-12-08T00:17:56.181Z,97870.31
2022-12-08T00:18:57.607Z,97875.97
2022-12-08T00:19:59.208Z,97870.66
2022-12-08T00:21:01.172Z,97869.00
2022-12-08T00:22:03.690Z,97873.47
2022-12-08T00:23:05.193Z,97864.09
2022-12-08T00:24:07.096Z,97866.06
2022-12-08T00:25:08.752Z,97865.44
2022-12-08T00:26:10.246Z,97865.88
2022-12-08T00:27:13.693Z,97859.13
2022-12-08T00:28:15.397Z,97861.75
2022-12-08T00:29:17.945Z,97865.88
2022-12-08T00:30:19.477Z,97860.22
2022-12-08T00:31:20.969Z,97864.22
2022-12-08T00:32:22.892Z,97859.75
2022-12-08T00:33:24.700Z,97860.53
2022-12-08T00:34:26.347Z,97864.97
2022-12-08T00:35:27.777Z,97863.13
2022-12-08T00:36:29.519Z,97861.38
2022-12-08T00:37:31.271Z,97869.81
2022-12-08T00:38:32.708Z,97863.97
2022-12-08T00:39:34.117Z,97864.63
2022-12-08T00:40:35.580Z,97865.03
2022-12-08T00:41:55.720Z,97859.53
2022-12-08T00:42:57.144Z,97860.28
2022-12-08T00:43:58.562Z,97859.06
2022-12-08T00:44:59.995Z,97856.34
2022-12-08T00:46:01.593Z,97862.44
2022-12-08T00:47:03.451Z,97858.31
2022-12-08T00:48:05.282Z,97858.63
2022-12-08T00:49:07.184Z,97854.03
2022-12-08T00:50:09.432Z,97857.75
2022-12-08T00:51:10.853Z,97854.50
2022-12-08T00:52:13.256Z,97857.13
2022-12-08T00:53:14.678Z,97861.25
2022-12-08T00:54:16.673Z,97855.25
2022-12-08T00:55:18.124Z,97864.28
2022-12-08T00:56:19.569Z,97866.88
2022-12-08T00:57:21.005Z,97858.81
2022-12-08T00:58:22.426Z,97861.44
2022-12-08T00:59:23.845Z,97860.34
2022-12-08T01:00:26.184Z,97861.09
2022-12-08T01:01:27.914Z,97857.41
2022-12-08T01:02:29.834Z,97854.03
2022-12-08T01:03:31.299Z,97856.09
2022-12-08T01:04:32.764Z,97856.84
2022-12-08T01:05:34.189Z,97862.06
2022-12-08T01:06:36.312Z,97853.16
2022-12-08T01:07:38.173Z,97856.50
2022-12-08T01:08:40.901Z,97858.06
2022-12-08T01:09:42.546Z,97859.13
2022-12-08T01:10:43.966Z,97860.97
2022-12-08T01:11:46.285Z,97853.34
2022-12-08T01:12:47.711Z,97857.38
2022-12-08T01:13:49.165Z,97855.94
2022-12-08T01:14:50.576Z,97852.44
2022-12-08T01:15:51.972Z,97859.88
2022-12-08T01:16:53.618Z,97858.81
2022-12-08T01:17:55.586Z,97856.34
2022-12-08T01:18:58.733Z,97856.78
2022-12-08T01:20:02.305Z,97849.13
2022-12-08T01:21:05.832Z,97855.63
2022-12-08T01:22:07.262Z,97855.34
2022-12-08T01:23:08.694Z,97854.53
2022-12-08T01:24:15.211Z,97854.69
2022-12-08T01:25:16.688Z,97857.94
2022-12-08T01:26:19.652Z,97860.66
2022-12-08T01:27:21.228Z,97854.34
2022-12-08T01:28:22.641Z,97856.19
2022-12-08T01:29:24.262Z,97859.75
2022-12-08T01:30:25.740Z,97855.00
2022-12-08T01:31:27.220Z,97858.03
2022-12-08T01:32:29.503Z,97859.56
2022-12-08T01:33:31.970Z,97859.88
2022-12-08T01:34:33.441Z,97863.59
2022-12-08T01:35:34.930Z,97862.38
2022-12-08T01:36:37.276Z,97867.16
2022-12-08T01:37:38.709Z,97861.50
2022-12-08T01:38:40.118Z,97859.00
2022-12-08T01:39:41.787Z,97863.31
2022-12-08T01:40:43.518Z,97855.19
2022-12-08T01:41:47.098Z,97848.69
2022-12-08T01:42:49.909Z,97862.63
2022-12-08T01:44:08.266Z,97852.63
2022-12-08T01:45:24.714Z,97858.63
2022-12-08T01:46:27.356Z,97854.34
2022-12-08T01:47:49.986Z,97854.06
2022-12-08T01:49:01.105Z,97856.66
2022-12-08T01:50:04.134Z,97854.34
2022-12-08T01:51:06.977Z,97852.53
2022-12-08T01:52:24.091Z,97846.41
2022-12-08T01:53:32.833Z,97858.81
2022-12-08T01:54:39.716Z,97843.63
2022-12-08T01:55:47.210Z,97848.50
2022-12-08T01:56:57.434Z,97849.00
2022-12-08T01:58:06.069Z,97846.84
2022-12-08T01:59:07.684Z,97839.94
2022-12-08T02:00:12.326Z,97841.88
2022-12-08T02:01:14.312Z,97844.69
2022-12-08T02:02:16.134Z,97848.03
2022-12-08T02:03:58.378Z,97840.38
2022-12-08T02:05:00.377Z,97841.22
2022-12-08T02:06:03.343Z,97838.47
2022-12-08T02:07:08.555Z,97845.03
2022-12-08T02:08:13.066Z,97838.88
2022-12-08T02:09:14.822Z,97839.97
2022-12-08T02:10:19.234Z,97834.25
2022-12-08T02:11:21.509Z,97828.41
2022-12-08T02:12:23.510Z,97824.72
2022-12-08T02:13:25.631Z,97833.63
2022-12-08T02:14:27.061Z,97827.09
2022-12-08T02:15:40.754Z,97827.84
2022-12-08T02:16:54.012Z,97831.31
2022-12-08T02:18:04.291Z,97825.22
2022-12-08T02:19:31.971Z,97824.16
2022-12-08T02:20:52.346Z,97815.56
2022-12-08T02:22:04.482Z,97816.56
2022-12-08T02:23:19.216Z,97819.03
2022-12-08T02:24:40.438Z,97809.50
2022-12-08T02:25:51.793Z,97813.34
2022-12-08T02:27:20.935Z,97815.16
2022-12-08T02:28:47.272Z,97813.00
2022-12-08T02:30:07.602Z,97810.72
2022-12-08T02:31:28.132Z,97805.53
2022-12-08T02:32:44.659Z,97804.72
2022-12-08T02:33:48.965Z,97801.38
2022-12-08T02:34:59.206Z,97806.28
2022-12-08T02:36:15.949Z,97809.88
2022-12-08T02:37:43.703Z,97799.00
2022-12-08T02:39:00.656Z,97797.47
2022-12-08T02:40:08.621Z,97803.25
2022-12-08T02:41:19.130Z,97797.00
2022-12-08T02:42:50.336Z,97795.16
2022-12-08T02:44:06.452Z,97797.66
2022-12-08T02:45:13.937Z,97801.03
2022-12-08T02:46:24.673Z,97791.38
2022-12-08T02:47:28.523Z,97792.81
2022-12-08T02:48:30.833Z,97785.97
2022-12-08T02:49:33.795Z,97798.25
2022-12-08T02:50:35.391Z,97795.91
2022-12-08T02:51:36.845Z,97791.78
2022-12-08T02:52:44.163Z,97788.72
2022-12-08T02:53:46.739Z,97791.91
2022-12-08T02:54:56.435Z,97789.81
2022-12-08T02:56:14.346Z,97785.06
2022-12-08T02:57:40.808Z,97788.16
2022-12-08T02:58:45.259Z,97782.13
2022-12-08T03:00:09.806Z,97779.06
2022-12-08T03:01:43.407Z,97784.19
2022-12-08T03:03:33.171Z,97779.38
2022-12-08T03:04:41.820Z,97778.16
2022-12-08T03:05:55.803Z,97785.50
2022-12-08T03:07:01.891Z,97776.09
2022-12-08T03:08:22.601Z,97774.06
2022-12-08T03:09:38.270Z,97778.22
2022-12-08T03:11:01.681Z,97776.44
2022-12-08T03:12:14.253Z,97771.16
2022-12-08T03:13:20.449Z,97768.69
2022-12-08T03:14:22.747Z,97777.09
2022-12-08T03:15:24.613Z,97765.59
2022-12-08T03:16:30.676Z,97773.53
2022-12-08T03:17:32.571Z,97767.44
2022-12-08T03:18:39.596Z,97767.56
2022-12-08T03:19:42.979Z,97775.81
2022-12-08T03:20:47.687Z,97772.25
2022-12-08T03:21:53.181Z,97769.03
2022-12-08T03:22:59.266Z,97773.03
2022-12-08T03:24:04.226Z,97761.84
2022-12-08T03:25:07.882Z,97767.69
2022-12-08T03:26:15.269Z,97771.84
2022-12-08T03:27:26.853Z,97763.94
2022-12-08T03:28:28.339Z,97766.22
2022-12-08T03:29:31.782Z,97764.25
2022-12-08T03:30:38.783Z,97757.56
2022-12-08T03:31:45.804Z,97761.84
2022-12-08T03:33:02.020Z,97758.34
2022-12-08T03:34:05.782Z,97761.19
2022-12-08T03:35:17.584Z,97755.94
2022-12-08T03:36:19.821Z,97755.72
2022-12-08T03:37:21.842Z,97758.16
2022-12-08T03:38:23.386Z,97758.81
2022-12-08T03:39:24.823Z,97760.75
2022-12-08T03:40:26.286Z,97756.44
2022-12-08T03:41:27.797Z,97748.63
2022-12-08T03:42:29.245Z,97752.88
2022-12-08T03:43:30.729Z,97751.78
2022-12-08T03:44:32.230Z,97756.72
2022-12-08T03:45:33.792Z,97754.84
2022-12-08T03:46:35.208Z,97755.63
2022-12-08T03:47:37.567Z,97764.81
2022-12-08T03:48:39.037Z,97760.84
2022-12-08T03:49:40.841Z,97762.69
2022-12-08T03:50:42.287Z,97760.50
2022-12-08T03:51:43.722Z,97754.53
2022-12-08T03:52:45.747Z,97757.75
2022-12-08T03:53:48.265Z,97755.63
2022-12-08T03:54:49.747Z,97754.97
2022-12-08T03:55:53.288Z,97753.78
2022-12-08T03:56:54.737Z,97752.56
2022-12-08T03:57:56.530Z,97747.66
2022-12-08T03:58:58.684Z,97741.44
2022-12-08T04:00:00.141Z,97743.84
2022-12-08T04:01:01.564Z,97744.16
2022-12-08T04:02:03.388Z,97741.56
2022-12-08T04:03:06.355Z,97739.28
2022-12-08T04:04:07.890Z,97739.91
2022-12-08T04:05:09.459Z,97741.81
2022-12-08T04:06:10.949Z,97733.56
2022-12-08T04:07:12.684Z,97741.63
2022-12-08T04:08:14.255Z,97743.03
2022-12-08T04:09:15.919Z,97738.78
2022-12-08T04:10:17.453Z,97731.09
2022-12-08T04:11:19.591Z,97734.56
2022-12-08T04:12:21.339Z,97730.75
2022-12-08T04:13:22.845Z,97729.53
2022-12-08T04:14:24.332Z,97735.28
2022-12-08T04:15:25.754Z,97727.59
2022-12-08T04:16:28.003Z,97723.13
2022-12-08T04:17:29.526Z,97728.16
2022-12-08T04:18:31.930Z,97733.81
2022-12-08T04:19:33.422Z,97733.81
2022-12-08T04:20:39.055Z,97727.13
2022-12-08T04:21:40.860Z,97734.31
2022-12-08T04:22:42.531Z,97731.19
2022-12-08T04:23:44.872Z,97727.97
2022-12-08T04:24:46.380Z,97731.53
2022-12-08T04:25:49.190Z,97727.78
2022-12-08T04:26:51.135Z,97730.38
2022-12-08T04:27:52.537Z,97731.56
2022-12-08T04:28:53.957Z,97728.47
2022-12-08T04:29:55.388Z,97734.25
2022-12-08T04:30:56.872Z,97725.78
2022-12-08T04:31:58.843Z,97727.78
2022-12-08T04:33:00.332Z,97730.69
2022-12-08T04:34:01.763Z,97723.31
2022-12-08T04:35:03.301Z,97729.25
2022-12-08T04:36:06.160Z,97727.41
2022-12-08T04:37:07.701Z,97729.81
2022-12-08T04:38:09.161Z,97732.56
2022-12-08T04:39:10.597Z,97723.84
2022-12-08T04:40:12.902Z,97729.16
2022-12-08T04:41:14.502Z,97722.13
2022-12-08T04:42:16.299Z,97724.72
2022-12-08T04:43:17.769Z,97730.25
2022-12-08T04:44:19.250Z,97722.63
2022-12-08T04:45:20.780Z,97720.81
2022-12-08T04:46:22.304Z,97723.44
2022-12-08T04:47:23.935Z,97722.69
2022-12-08T04:48:25.441Z,97722.47
2022-12-08T04:49:26.904Z,97715.94
2022-12-08T04:50:28.766Z,97717.66
2022-12-08T04:51:30.289Z,97720.81
2022-12-08T04:52:32.245Z,97725.88
2022-12-08T04:53:33.881Z,97716.28
2022-12-08T04:54:35.416Z,97720.00
2022-12-08T04:55:41.976Z,97717.22
2022-12-08T04:56:43.759Z,97716.59
2022-12-08T04:57:45.325Z,97717.09
2022-12-08T04:58:47.009Z,97720.25
2022-12-08T04:59:48.458Z,97707.38
2022-12-08T05:00:50.292Z,97710.31
2022-12-08T05:01:52.598Z,97710.41
2022-12-08T05:02:54.212Z,97719.44
2022-12-08T05:03:57.094Z,97716.41
2022-12-08T05:04:58.759Z,97717.47
2022-12-08T05:06:01.184Z,97722.06
2022-12-08T05:07:02.928Z,97723.38
2022-12-08T05:08:05.525Z,97719.06
2022-12-08T05:09:07.066Z,97722.13
2022-12-08T05:10:08.800Z,97715.69
2022-12-08T05:11:11.731Z,97716.78
2022-12-08T05:12:13.455Z,97721.34
2022-12-08T05:13:14.863Z,97716.25
2022-12-08T05:14:18.352Z,97717.97
2022-12-08T05:15:20.089Z,97718.94
2022-12-08T05:16:21.546Z,97719.81
2022-12-08T05:17:23.424Z,97722.44
2022-12-08T05:18:24.944Z,97716.59
2022-12-08T05:19:26.324Z,97717.16
2022-12-08T05:20:28.203Z,97712.81
2022-12-08T05:21:30.309Z,97716.00
2022-12-08T05:22:31.852Z,97717.72
2022-12-08T05:23:33.500Z,97717.41
2022-12-08T05:24:35.176Z,97716.75
2022-12-08T05:25:36.599Z,97715.03
2022-12-08T05:26:38.126Z,97719.06
2022-12-08T05:27:39.550Z,97714.03
2022-12-08T05:28:42.683Z,97712.50
2022-12-08T05:29:44.473Z,97711.75
2022-12-08T05:30:45.965Z,97712.81
2022-12-08T05:31:47.789Z,97709.47
2022-12-08T05:32:49.271Z,97715.44
2022-12-08T05:33:51.979Z,97710.22
2022-12-08T05:34:53.456Z,97713.66
2022-12-08T05:35:54.953Z,97713.47
2022-12-08T05:36:56.732Z,97710.66
2022-12-08T05:37:58.203Z,97715.56
2022-12-08T05:38:59.717Z,97710.34
2022-12-08T05:40:01.535Z,97719.44
2022-12-08T05:41:03.752Z,97712.81
2022-12-08T05:42:05.688Z,97710.97
2022-12-08T05:43:07.531Z,97712.81
2022-12-08T05:44:09.025Z,97713.25
2022-12-08T05:45:10.790Z,97706.97
2022-12-08T05:46:13.550Z,97699.59
2022-12-08T05:47:15.126Z,97714.16
2022-12-08T05:48:16.856Z,97707.84
2022-12-08T05:49:18.446Z,97704.47
2022-12-08T05:50:19.875Z,97710.59
2022-12-08T05:51:24.075Z,97703.53
2022-12-08T05:52:25.503Z,97705.81
2022-12-08T05:53:27.670Z,97705.06
2022-12-08T05:54:29.136Z,97706.13
2022-12-08T05:55:30.596Z,97705.50
2022-12-08T05:56:32.391Z,97698.63
2022-12-08T05:57:33.829Z,97706.66
2022-12-08T05:58:35.306Z,97697.38
2022-12-08T05:59:37.570Z,97705.06
2022-12-08T06:00:39.246Z,97708.91
2022-12-08T06:01:41.221Z,97701.34
2022-12-08T06:02:42.872Z,97704.50
2022-12-08T06:03:44.419Z,97704.63
2022-12-08T06:04:45.825Z,97705.69
2022-12-08T06:05:47.865Z,97700.59
2022-12-08T06:06:49.897Z,97704.56
2022-12-08T06:07:51.386Z,97705.03
2022-12-08T06:08:53.314Z,97707.94
2022-12-08T06:09:54.819Z,97705.47
2022-12-08T06:10:56.284Z,97703.00
2022-12-08T06:11:57.784Z,97700.19
2022-12-08T06:12:59.619Z,97697.25
2022-12-08T06:14:02.126Z,97695.09
2022-12-08T06:15:04.218Z,97701.84
2022-12-08T06:16:07.110Z,97710.91
2022-12-08T06:17:08.744Z,97699.09
2022-12-08T06:18:10.896Z,97698.16
2022-12-08T06:19:12.377Z,97702.28
2022-12-08T06:20:13.830Z,97700.44
2022-12-08T06:21:16.543Z,97697.53
2022-12-08T06:22:17.939Z,97703.16
2022-12-08T06:23:19.363Z,97703.34
2022-12-08T06:24:20.822Z,97702.41
2022-12-08T06:25:22.615Z,97711.53
2022-12-08T06:26:24.076Z,97709.34
2022-12-08T06:27:25.543Z,97706.09
2022-12-08T06:28:27.076Z,97707.88
2022-12-08T06:29:28.532Z,97710.69
2022-12-08T06:30:29.957Z,97705.97
2022-12-08T06:31:31.441Z,97706.59
2022-12-08T06:32:32.921Z,97704.00
2022-12-08T06:33:34.483Z,97706.09
2022-12-08T06:34:35.891Z,97711.09
2022-12-08T06:35:37.670Z,97710.16
2022-12-08T06:36:39.138Z,97711.38
2022-12-08T06:37:40.551Z,97712.25
2022-12-08T06:38:43.833Z,97713.47
2022-12-08T06:39:45.925Z,97710.97
2022-12-08T06:40:54.090Z,97705.22
2022-12-08T06:42:13.885Z,97707.81
2022-12-08T06:43:15.338Z,97715.16
2022-12-08T06:44:16.781Z,97718.25
2022-12-08T06:45:18.378Z,97706.78
2022-12-08T06:46:20.594Z,97705.84
2022-12-08T06:47:26.165Z,97710.16
2022-12-08T06:48:27.999Z,97710.34
2022-12-08T06:49:29.406Z,97703.63
2022-12-08T06:50:30.942Z,97713.72
2022-12-08T06:51:32.394Z,97711.25
2022-12-08T06:52:37.639Z,97713.66
2022-12-08T06:53:44.074Z,97707.94
2022-12-08T06:54:45.601Z,97711.59
2022-12-08T06:55:59.270Z,97706.72
2022-12-08T06:57:01.229Z,97704.94
2022-12-08T06:58:02.934Z,97711.25
2022-12-08T06:59:04.522Z,97702.78
2022-12-08T07:00:06.933Z,97705.22
2022-12-08T07:01:12.775Z,97710.53
2022-12-08T07:02:14.328Z,97710.97
2022-12-08T07:03:16.069Z,97709.88
2022-12-08T07:04:17.524Z,97710.03
2022-12-08T07:05:19.055Z,97713.38
2022-12-08T07:06:25.424Z,97709.41
2022-12-08T07:07:26.970Z,97708.94
2022-12-08T07:08:28.520Z,97718.41
2022-12-08T07:09:31.451Z,97717.22
2022-12-08T07:10:33.710Z,97714.34
2022-12-08T07:11:35.192Z,97715.56
2022-12-08T07:12:36.650Z,97719.22
2022-12-08T07:13:38.141Z,97721.53
2022-12-08T07:14:39.811Z,97718.94
2022-12-08T07:15:41.267Z,97723.47
2022-12-08T07:16:42.837Z,97719.69
2022-12-08T07:17:44.333Z,97716.72
2022-12-08T07:18:45.752Z,97716.59
2022-12-08T07:19:50.094Z,97717.72
2022-12-08T07:20:51.633Z,97717.22
2022-12-08T07:21:53.063Z,97713.41
2022-12-08T07:22:54.710Z,97717.66
2022-12-08T07:23:58.021Z,97717.16
2022-12-08T07:24:59.630Z,97720.22
2022-12-08T07:26:05.651Z,97715.00
2022-12-08T07:27:07.139Z,97716.53
2022-12-08T07:28:11.852Z,97723.59
2022-12-08T07:29:13.466Z,97723.13
2022-12-08T07:30:15.126Z,97714.22
2022-12-08T07:31:20.799Z,97717.28
2022-12-08T07:32:22.430Z,97722.94
2022-12-08T07:33:24.761Z,97718.16
2022-12-08T07:34:26.199Z,97716.94
2022-12-08T07:35:27.649Z,97713.59
2022-12-08T07:36:29.078Z,97717.72
2022-12-08T07:37:30.583Z,97720.31
2022-12-08T07:38:32.273Z,97720.03
2022-12-08T07:39:33.714Z,97720.31
2022-12-08T07:40:37.027Z,97727.72
2022-12-08T07:41:38.490Z,97721.44
2022-12-08T07:42:39.939Z,97720.97
2022-12-08T07:43:42.192Z,97724.47
2022-12-08T07:44:43.608Z,97731.75
2022-12-08T07:45:45.787Z,97730.81
2022-12-08T07:46:47.287Z,97724.34
2022-12-08T07:47:48.743Z,97722.03
2022-12-08T07:48:50.463Z,97722.50
2022-12-08T07:49:51.935Z,97719.38
2022-12-08T07:51:01.753Z,97717.97
2022-12-08T07:52:03.243Z,97717.78
2022-12-08T07:53:05.234Z,97716.56
2022-12-08T07:54:06.673Z,97717.31
2022-12-08T07:55:09.101Z,97714.84
2022-12-08T07:56:12.316Z,97714.53
2022-12-08T07:57:14.067Z,97710.44
2022-12-08T07:58:15.465Z,97710.91
2022-12-08T07:59:16.911Z,97710.53
2022-12-08T08:00:19.487Z,97709.03
2022-12-08T08:01:26.675Z,97706.28
2022-12-08T08:02:28.435Z,97700.25
2022-12-08T08:03:30.111Z,97704.38
2022-12-08T08:04:31.596Z,97712.31
2022-12-08T08:05:33.385Z,97714.94
2022-12-08T08:06:35.130Z,97708.91
2022-12-08T08:07:37.232Z,97715.38
2022-12-08T08:08:38.774Z,97715.25
2022-12-08T08:09:40.280Z,97713.97
2022-12-08T08:10:41.846Z,97715.75
2022-12-08T08:11:55.914Z,97717.28
2022-12-08T08:13:04.775Z,97714.91
2022-12-08T08:14:06.461Z,97711.53
2022-12-08T08:15:09.305Z,97721.84
2022-12-08T08:16:13.404Z,97717.41
2022-12-08T08:17:15.087Z,97720.78
2022-12-08T08:18:16.597Z,97723.38
2022-12-08T08:19:19.114Z,97716.13
2022-12-08T08:20:21.634Z,97718.66
2022-12-08T08:21:45.202Z,97722.34
2022-12-08T08:22:48.332Z,97707.94
2022-12-08T08:23:49.993Z,97714.47
2022-12-08T08:24:51.768Z,97724.56
2022-12-08T08:25:53.315Z,97712.44
2022-12-08T08:26:55.319Z,97712.22
2022-12-08T08:27:59.788Z,97715.72
2022-12-08T08:29:01.543Z,97719.97
2022-12-08T08:30:06.248Z,97721.00
2022-12-08T08:31:08.015Z,97715.97
2022-12-08T08:32:09.466Z,97717.38
2022-12-08T08:33:11.331Z,97714.72
2022-12-08T08:34:12.971Z,97713.53
2022-12-08T08:35:14.540Z,97723.25
2022-12-08T08:36:15.984Z,97717.66
2022-12-08T08:37:17.509Z,97715.78
2022-12-08T08:38:19.052Z,97715.28
2022-12-08T08:39:20.511Z,97714.63
2022-12-08T08:40:22.362Z,97721.06
2022-12-08T08:41:23.778Z,97719.78
2022-12-08T08:42:25.276Z,97722.06
2022-12-08T08:43:32.922Z,97714.16
2022-12-08T08:44:39.424Z,97716.56
2022-12-08T08:45:40.874Z,97716.06
2022-12-08T08:46:42.539Z,97715.28
2022-12-08T08:47:44.192Z,97718.13
2022-12-08T08:48:45.814Z,97718.59
2022-12-08T08:49:47.389Z,97718.13
2022-12-08T08:50:48.785Z,97717.03
2022-12-08T08:51:50.294Z,97725.13
2022-12-08T08:52:51.723Z,97714.69
2022-12-08T08:53:53.174Z,97712.97
2022-12-08T08:54:54.717Z,97712.22
2022-12-08T08:55:56.153Z,97709.47
2022-12-08T08:56:58.596Z,97714.81
2022-12-08T08:58:00.027Z,97714.81
2022-12-08T08:59:03.032Z,97716.63
2022-12-08T09:00:05.981Z,97710.88
2022-12-08T09:01:07.906Z,97710.19
2022-12-08T09:02:17.903Z,97713.13
2022-12-08T09:03:19.449Z,97714.53
2022-12-08T09:04:22.390Z,97711.03
2022-12-08T09:05:23.940Z,97710.94
2022-12-08T09:06:25.955Z,97696.28
2022-12-08T09:07:27.536Z,97704.66
2022-12-08T09:08:29.030Z,97711.19
2022-12-08T09:09:31.683Z,97709.47
2022-12-08T09:10:33.295Z,97709.47
2022-12-08T09:11:34.836Z,97707.19
2022-12-08T09:12:36.246Z,97708.72
2022-12-08T09:13:38.168Z,97706.88
2022-12-08T09:14:40.013Z,97707.69
2022-12-08T09:15:41.609Z,97712.69
2022-12-08T09:16:43.544Z,97705.56
2022-12-08T09:17:45.046Z,97708.16
2022-12-08T09:18:48.273Z,97706.41
2022-12-08T09:19:49.806Z,97709.34
2022-12-08T09:20:51.284Z,97709.00
2022-12-08T09:21:53.012Z,97708.72
2022-12-08T09:22:54.512Z,97714.56
2022-12-08T09:23:58.164Z,97699.19
2022-12-08T09:24:59.747Z,97703.84
2022-12-08T09:26:02.845Z,97704.59
2022-12-08T09:27:04.256Z,97708.53
2022-12-08T09:28:05.664Z,97714.22
2022-12-08T09:29:07.513Z,97705.72
2022-12-08T09:30:09.320Z,97709.34
2022-12-08T09:31:10.787Z,97702.19
2022-12-08T09:32:12.356Z,97699.59
2022-12-08T09:33:13.813Z,97697.72
2022-12-08T09:34:15.473Z,97703.91
2022-12-08T09:35:17.077Z,97697.94
2022-12-08T09:36:19.687Z,97702.63
2022-12-08T09:37:21.137Z,97704.75
2022-12-08T09:38:22.631Z,97695.91
2022-12-08T09:39:24.170Z,97700.63
2022-12-08T09:40:27.003Z,97702.00
2022-12-08T09:41:48.358Z,97698.22
2022-12-08T09:43:21.173Z,97698.91
2022-12-08T09:44:59.849Z,97696.09
2022-12-08T09:46:07.502Z,97702.06
2022-12-08T09:47:28.397Z,97700.56
2022-12-08T09:48:42.764Z,97703.72
2022-12-08T09:50:16.152Z,97689.28
2022-12-08T09:51:17.731Z,97692.56
2022-12-08T09:52:24.211Z,97693.88
2022-12-08T09:53:50.832Z,97694.75
2022-12-08T09:54:52.359Z,97688.66
2022-12-08T09:55:58.642Z,97690.84
2022-12-08T09:57:05.382Z,97685.38
2022-12-08T09:58:15.869Z,97685.28
2022-12-08T09:59:31.529Z,97687.34
2022-12-08T10:00:40.134Z,97683.00
2022-12-08T10:01:42.042Z,97682.59
2022-12-08T10:02:47.542Z,97678.00
2022-12-08T10:03:49.217Z,97677.59
2022-12-08T10:04:51.511Z,97675.53
2022-12-08T10:06:04.827Z,97676.50
2022-12-08T10:07:39.444Z,97675.75
2022-12-08T10:08:55.747Z,97669.97
2022-12-08T10:10:36.702Z,97669.44
2022-12-08T10:11:41.219Z,97670.81
2022-12-08T10:12:49.794Z,97669.63
2022-12-08T10:14:16.363Z,97663.25
2022-12-08T10:15:36.054Z,97666.72
2022-12-08T10:16:47.025Z,97673.88
2022-12-08T10:17:51.718Z,97670.09
2022-12-08T10:19:01.546Z,97669.88
2022-12-08T10:20:15.889Z,97671.19
2022-12-08T10:21:25.838Z,97668.66
2022-12-08T10:22:33.922Z,97666.63
2022-12-08T10:23:39.560Z,97666.63
2022-12-08T10:24:48.855Z,97667.25
2022-12-08T10:25:56.397Z,97660.94
2022-12-08T10:26:58.218Z,97665.28
2022-12-08T10:27:59.658Z,97663.69
2022-12-08T10:29:04.337Z,97658.22
2022-12-08T10:30:13.320Z,97652.34
2022-12-08T10:31:16.231Z,97646.94
2022-12-08T10:32:20.830Z,97649.97
2022-12-08T10:33:22.561Z,97650.22
2022-12-08T10:34:24.538Z,97642.91
2022-12-08T10:35:56.814Z,97647.91
2022-12-08T10:37:00.678Z,97640.75
2022-12-08T10:38:03.995Z,97636.38
2022-12-08T10:39:35.767Z,97629.31
2022-12-08T10:40:43.837Z,97633.53
2022-12-08T10:41:47.206Z,97637.03
2022-12-08T10:42:55.596Z,97632.91
2022-12-08T10:44:00.870Z,97631.50
2022-12-08T10:45:15.231Z,97630.41
2022-12-08T10:46:20.749Z,97629.09
2022-12-08T10:47:25.216Z,97626.72
2022-12-08T10:48:29.703Z,97626.25
2022-12-08T10:49:32.406Z,97627.34
2022-12-08T10:50:33.885Z,97617.69
2022-12-08T10:51:38.627Z,97629.41
2022-12-08T10:52:40.894Z,97622.25
2022-12-08T10:53:46.161Z,97628.75
2022-12-08T10:54:52.334Z,97614.31
2022-12-08T10:56:08.152Z,97614.22
2022-12-08T10:57:20.809Z,97611.78
2022-12-08T10:58:31.165Z,97614.63
2022-12-08T10:59:34.170Z,97610.63
2022-12-08T11:00:39.227Z,97608.97
2022-12-08T11:01:42.598Z,97600.47
2022-12-08T11:03:22.345Z,97602.44
2022-12-08T11:04:26.511Z,97608.72
2022-12-08T11:05:33.922Z,97609.28
2022-12-08T11:06:38.357Z,97607.34
2022-12-08T11:07:47.124Z,97604.84
2022-12-08T11:08:52.925Z,97609.63
2022-12-08T11:09:58.242Z,97604.50
2022-12-08T11:10:59.756Z,97594.50
2022-12-08T11:12:22.067Z,97607.97
2022-12-08T11:13:27.151Z,97596.88
2022-12-08T11:14:32.117Z,97599.84
2022-12-08T11:15:38.248Z,97600.16
2022-12-08T11:16:43.148Z,97599.59
2022-12-08T11:17:48.688Z,97591.44
2022-12-08T11:18:58.584Z,97590.16
2022-12-08T11:20:03.374Z,97599.50
2022-12-08T11:21:14.637Z,97591.13
2022-12-08T11:22:22.115Z,97587.53
2022-12-08T11:23:26.020Z,97590.22
2022-12-08T11:24:32.262Z,97592.63
2022-12-08T11:25:36.233Z,97590.97
2022-12-08T11:26:38.340Z,97586.31
2022-12-08T11:28:04.514Z,97587.72
2022-12-08T11:29:08.919Z,97589.16
2022-12-08T11:30:19.453Z,97586.88
2022-12-08T11:31:35.594Z,97583.03
2022-12-08T11:32:40.420Z,97576.81
2022-12-08T11:33:44.214Z,97580.63
2022-12-08T11:34:58.435Z,97581.16
2022-12-08T11:36:11.773Z,97577.56
2022-12-08T11:37:28.613Z,97580.94
2022-12-08T11:38:40.889Z,97577.97
2022-12-08T11:39:48.214Z,97573.53
2022-12-08T11:40:58.807Z,97578.31
2022-12-08T11:42:03.560Z,97569.38
2022-12-08T11:43:40.964Z,97576.66
2022-12-08T11:44:49.794Z,97579.50
2022-12-08T11:45:59.046Z,97576.34
2022-12-08T11:47:24.176Z,97578.75
2022-12-08T11:48:33.737Z,97576.47
2022-12-08T11:49:40.942Z,97576.81
2022-12-08T11:50:49.760Z,97574.44
2022-12-08T11:51:57.483Z,97574.13
2022-12-08T11:53:01.365Z,97576.50
2022-12-08T11:54:07.055Z,97571.91
2022-12-08T11:55:23.538Z,97575.41
2022-12-08T11:56:32.359Z,97572.41
2022-12-08T11:57:33.845Z,97575.94
2022-12-08T11:58:41.077Z,97582.97
2022-12-08T11:59:49.694Z,97569.13
2022-12-08T12:00:51.188Z,97583.06
2022-12-08T12:01:53.260Z,97574.47
2022-12-08T12:03:04.759Z,97577.63
2022-12-08T12:04:31.516Z,97571.41
2022-12-08T12:06:13.156Z,97572.91
2022-12-08T12:07:23.066Z,97563.75
2022-12-08T12:08:45.575Z,97567.00
2022-12-08T12:10:24.764Z,97562.22
2022-12-08T12:12:16.126Z,97567.22
2022-12-08T12:13:32.345Z,97558.63
2022-12-08T12:14:52.670Z,97557.41
2022-12-08T12:16:26.954Z,97569.31
2022-12-08T12:17:51.136Z,97563.56
2022-12-08T12:18:57.625Z,97558.53
2022-12-08T12:20:03.661Z,97561.59
2022-12-08T12:21:16.266Z,97561.59
2022-12-08T12:22:22.058Z,97558.41
2022-12-08T12:23:31.757Z,97560.25
2022-12-08T12:24:37.692Z,97555.91
2022-12-08T12:25:50.596Z,97556.88
2022-12-08T12:27:15.021Z,97557.06
2022-12-08T12:28:17.730Z,97555.47
2022-12-08T12:29:23.715Z,97556.66
2022-12-08T12:30:27.966Z,97558.06
2022-12-08T12:31:34.042Z,97547.09
2022-12-08T12:32:46.897Z,97547.78
2022-12-08T12:33:50.644Z,97553.13
2022-12-08T12:35:00.915Z,97554.06
2022-12-08T12:36:06.421Z,97546.69
2022-12-08T12:37:12.699Z,97553.09
2022-12-08T12:38:44.425Z,97552.78
2022-12-08T12:39:53.304Z,97552.78
2022-12-08T12:41:02.784Z,97550.41
2022-12-08T12:42:05.404Z,97548.31
2022-12-08T12:43:12.460Z,97549.41
2022-12-08T12:44:13.874Z,97546.78
2022-12-08T12:45:18.346Z,97547.84
2022-12-08T12:46:23.244Z,97547.22
2022-12-08T12:47:52.561Z,97551.69
2022-12-08T12:49:34.239Z,97556.03
2022-12-08T12:50:41.798Z,97548.53